Time;durP1;ratioP1;P1;durP2;ratioP2;P2;SDS_P1;SDS_P2;PMS_P1;PMS_P2;Temp;Humidity;BMP_temperature;BMP_pressure;BME280_temperature;BME280_humidity;BME280_pressure;Samples;Min_cycle;Max_cycle;Signal;HPM_P1;HPM_P2
2023/02/06 00:00:35;;;;;;;17.20;10.15;;;2.30;99.90;;;;;;5013134;28;20041;-73
2023/02/06 00:03:01;;;;;;;18.38;10.80;;;2.30;99.90;;;;;;5019840;28;20073;-73
2023/02/06 00:05:26;;;;;;;14.70;10.10;;;2.30;99.90;;;;;;5024539;28;20474;-73
2023/02/06 00:07:52;;;;;;;20.58;11.18;;;2.40;99.90;;;;;;5028337;28;20132;-73
2023/02/06 00:10:18;;;;;;;19.85;10.20;;;2.40;99.90;;;;;;5018263;28;20605;-73
2023/02/06 00:12:44;;;;;;;18.75;10.80;;;2.30;99.90;;;;;;5001848;28;20064;-73
2023/02/06 00:15:09;;;;;;;17.45;10.68;;;2.20;99.90;;;;;;5027414;28;20046;-73
2023/02/06 00:17:36;;;;;;;18.95;10.30;;;2.40;99.90;;;;;;5022977;28;20374;-73
2023/02/06 00:20:03;;;;;;;16.90;9.70;;;2.40;99.90;;;;;;5013511;28;20043;-73
2023/02/06 00:22:29;;;;;;;17.50;10.05;;;2.40;99.90;;;;;;5034832;28;20049;-73
2023/02/06 00:24:55;;;;;;;17.42;10.15;;;2.40;99.90;;;;;;5047201;28;20564;-73
2023/02/06 00:27:20;;;;;;;16.63;10.32;;;2.30;99.90;;;;;;5046425;28;20042;-73
2023/02/06 00:29:46;;;;;;;17.92;9.90;;;2.40;99.90;;;;;;5024535;28;20045;-73
2023/02/06 00:32:12;;;;;;;21.17;12.00;;;2.30;99.90;;;;;;5006722;28;20158;-73
2023/02/06 00:34:38;;;;;;;21.70;12.02;;;2.20;99.90;;;;;;5002791;28;20061;-73
2023/02/06 00:37:04;;;;;;;16.65;10.43;;;2.20;99.90;;;;;;5025544;28;20057;-73
2023/02/06 00:39:29;;;;;;;15.93;10.82;;;2.20;99.90;;;;;;5013707;28;20045;-73
2023/02/06 00:41:55;;;;;;;19.25;11.07;;;2.20;99.90;;;;;;5011156;28;20355;-73
2023/02/06 00:44:21;;;;;;;15.73;10.23;;;2.20;99.90;;;;;;5013685;28;20124;-73
2023/02/06 00:46:47;;;;;;;20.75;10.65;;;2.30;99.90;;;;;;5030069;28;20049;-73
2023/02/06 00:49:13;;;;;;;17.73;10.50;;;2.30;99.90;;;;;;4988029;28;20061;-73
2023/02/06 00:51:39;;;;;;;18.13;10.85;;;2.30;99.90;;;;;;5041053;28;20068;-73
2023/02/06 00:54:05;;;;;;;22.98;12.45;;;2.30;99.90;;;;;;5030171;28;20136;-73
2023/02/06 00:56:31;;;;;;;20.50;11.70;;;2.30;99.90;;;;;;5004359;28;20434;-73
2023/02/06 00:58:57;;;;;;;18.15;12.15;;;2.40;99.90;;;;;;5041041;28;20068;-73
2023/02/06 01:01:24;;;;;;;18.45;11.82;;;2.30;99.90;;;;;;4993588;28;20145;-73
2023/02/06 01:03:49;;;;;;;18.15;11.18;;;2.30;99.90;;;;;;5024119;28;20049;-73
2023/02/06 01:06:15;;;;;;;18.98;11.70;;;2.30;99.90;;;;;;5022717;28;20042;-73
2023/02/06 01:08:41;;;;;;;21.90;13.10;;;2.40;99.90;;;;;;5007735;28;20411;-73
2023/02/06 01:11:15;;;;;;;25.27;13.65;;;2.40;99.90;;;;;;5030680;28;20049;-73
2023/02/06 01:13:41;;;;;;;24.70;13.75;;;2.30;99.90;;;;;;5011359;28;20505;-74
2023/02/06 01:16:08;;;;;;;20.52;12.10;;;2.40;99.90;;;;;;5014766;28;20055;-74
2023/02/06 01:18:34;;;;;;;27.37;14.43;;;2.40;99.90;;;;;;5013707;28;20049;-74
2023/02/06 01:20:59;;;;;;;20.88;12.52;;;2.30;99.90;;;;;;5005233;28;20387;-73
2023/02/06 01:23:25;;;;;;;23.13;12.80;;;2.30;99.90;;;;;;5040187;28;20466;-73
2023/02/06 01:25:52;;;;;;;25.25;12.88;;;2.30;99.90;;;;;;5032334;28;20050;-74
2023/02/06 01:28:18;;;;;;;26.88;14.07;;;2.40;99.90;;;;;;5017904;28;20041;-73
2023/02/06 01:30:43;;;;;;;24.85;14.00;;;2.40;99.90;;;;;;5033617;28;20119;-73
2023/02/06 01:33:09;;;;;;;20.40;12.27;;;2.40;99.90;;;;;;5045968;28;20049;-74
2023/02/06 01:35:35;;;;;;;23.58;13.10;;;2.40;99.90;;;;;;5029685;28;20041;-74
2023/02/06 01:38:01;;;;;;;28.02;15.73;;;2.40;99.90;;;;;;4998884;28;20042;-74
2023/02/06 01:40:27;;;;;;;31.98;16.52;;;2.40;99.90;;;;;;5017985;28;20046;-73
2023/02/06 01:42:52;;;;;;;35.33;16.00;;;2.30;99.90;;;;;;5033640;28;20046;-74
2023/02/06 01:45:24;;;;;;;34.08;15.68;;;2.40;99.90;;;;;;5007384;28;20120;-73
2023/02/06 01:47:55;;;;;;;32.05;16.13;;;2.40;99.90;;;;;;5066287;28;20053;-73
2023/02/06 01:50:21;;;;;;;29.55;15.32;;;2.40;99.90;;;;;;5032937;28;20149;-73
2023/02/06 01:52:46;;;;;;;32.60;15.88;;;2.40;99.90;;;;;;5013785;28;20132;-73
2023/02/06 01:55:12;;;;;;;31.38;16.15;;;2.40;99.90;;;;;;5030479;28;20468;-74
2023/02/06 01:57:39;;;;;;;36.95;17.23;;;2.40;99.90;;;;;;5043756;28;20183;-73
2023/02/06 02:00:07;;;;;;;35.08;16.77;;;2.40;99.90;;;;;;5049072;28;20146;-73
2023/02/06 02:02:33;;;;;;;37.22;17.55;;;2.40;99.90;;;;;;5014314;28;20375;-73
2023/02/06 02:04:59;;;;;;;44.72;20.10;;;2.40;99.90;;;;;;5013576;28;20048;-73
2023/02/06 02:07:34;;;;;;;47.50;18.10;;;2.40;99.90;;;;;;5014903;28;20650;-73
2023/02/06 02:10:00;;;;;;;39.60;17.65;;;2.40;99.90;;;;;;4992693;28;20131;-73
2023/02/06 02:12:25;;;;;;;49.72;20.73;;;2.40;99.90;;;;;;5006612;28;20104;-73
2023/02/06 02:14:52;;;;;;;38.97;17.63;;;2.30;99.90;;;;;;5027214;28;20045;-73
2023/02/06 02:17:39;;;;;;;42.40;19.13;;;2.30;99.90;;;;;;5025081;28;20054;-73
2023/02/06 02:20:27;;;;;;;42.53;18.23;;;2.40;99.90;;;;;;5046596;28;20053;-73
2023/02/06 02:23:05;;;;;;;46.60;19.48;;;2.30;99.90;;;;;;5037363;28;20104;-73
2023/02/06 02:25:46;;;;;;;42.50;18.88;;;2.40;99.90;;;;;;5019203;28;20052;-74
2023/02/06 02:28:37;;;;;;;43.08;17.83;;;2.40;99.90;;;;;;5032971;28;20092;-73
2023/02/06 02:31:21;;;;;;;45.20;19.45;;;2.30;99.90;;;;;;5016267;28;20087;-73
2023/02/06 02:34:14;;;;;;;42.35;18.75;;;2.30;99.90;;;;;;5024438;28;20466;-74
2023/02/06 02:36:41;;;;;;;51.38;18.95;;;2.30;99.90;;;;;;5016629;28;20057;-74
2023/02/06 02:39:19;;;;;;;53.22;19.73;;;2.30;99.90;;;;;;5038975;28;20365;-74
2023/02/06 02:42:06;;;;;;;51.53;20.45;;;2.30;99.90;;;;;;5048080;28;20073;-73
2023/02/06 02:44:56;;;;;;;46.42;19.35;;;2.30;99.90;;;;;;4987392;28;20153;-73
2023/02/06 02:47:24;;;;;;;49.15;19.00;;;2.30;99.90;;;;;;5050378;28;20698;-73
2023/02/06 02:49:50;;;;;;;49.38;20.92;;;2.30;99.90;;;;;;5026015;28;20045;-73
2023/02/06 02:52:17;;;;;;;52.47;22.13;;;2.40;99.90;;;;;;5016586;28;20049;-73
2023/02/06 02:54:42;;;;;;;47.60;20.83;;;2.20;99.90;;;;;;5022775;28;20111;-73
2023/02/06 02:57:21;;;;;;;52.03;20.02;;;2.30;99.90;;;;;;5009113;28;20038;-73
2023/02/06 02:59:47;;;;;;;53.17;19.90;;;2.30;99.90;;;;;;5026120;28;20042;-73
2023/02/06 03:02:34;;;;;;;46.72;20.30;;;2.30;99.90;;;;;;5009504;28;20046;-73
2023/02/06 03:05:03;;;;;;;51.22;21.20;;;2.30;99.90;;;;;;5010808;28;20052;-72
2023/02/06 03:07:38;;;;;;;45.65;20.63;;;2.40;99.90;;;;;;5023250;28;20073;-73
2023/02/06 03:10:27;;;;;;;50.17;20.92;;;2.20;99.90;;;;;;5031963;28;20072;-73
2023/02/06 03:13:20;;;;;;;50.95;22.48;;;2.20;99.90;;;;;;5030831;28;20144;-74
2023/02/06 03:15:56;;;;;;;47.95;19.60;;;2.10;99.90;;;;;;5044963;28;20045;-73
2023/02/06 03:18:29;;;;;;;51.67;20.38;;;2.20;99.90;;;;;;5015455;28;20828;-72
2023/02/06 03:20:55;;;;;;;54.15;21.20;;;2.10;99.90;;;;;;4988113;28;20050;-73
2023/02/06 03:23:23;;;;;;;55.78;21.48;;;2.20;99.90;;;;;;4992580;28;20530;-73
2023/02/06 03:25:50;;;;;;;;;;;2.10;99.90;;;;;;5024319;28;20107;-73
2023/02/06 03:28:17;;;;;;;52.90;21.73;;;2.10;99.90;;;;;;5036522;28;19913;-72
2023/02/06 03:30:47;;;;;;;54.97;21.15;;;2.10;99.90;;;;;;5013944;28;20050;-73
2023/02/06 03:33:14;;;;;;;56.53;22.98;;;2.10;99.90;;;;;;5001001;28;20080;-73
2023/02/06 03:35:40;;;;;;;49.78;21.60;;;2.10;99.90;;;;;;5028831;28;20110;-73
2023/02/06 03:38:06;;;;;;;58.55;24.90;;;2.10;99.90;;;;;;5031315;28;20049;-73
2023/02/06 03:40:32;;;;;;;48.75;22.10;;;2.00;99.90;;;;;;5011321;28;20133;-73
2023/02/06 03:42:59;;;;;;;50.63;21.20;;;2.00;99.90;;;;;;4992805;28;20120;-73
2023/02/06 03:45:36;;;;;;;45.88;19.27;;;2.00;99.90;;;;;;5027230;28;20041;-72
2023/02/06 03:48:14;;;;;;;40.15;17.70;;;2.10;99.90;;;;;;5013804;28;20053;-72
2023/02/06 03:50:40;;;;;;;;;;;2.00;99.90;;;;;;5031727;28;20046;-71
2023/02/06 03:53:06;;;;;;;40.55;16.38;;;2.00;99.90;;;;;;5055561;28;19948;-72
2023/02/06 03:55:32;;;;;;;43.67;18.17;;;2.10;99.90;;;;;;5019640;28;20080;-72
2023/02/06 03:58:06;;;;;;;40.05;17.67;;;2.10;99.90;;;;;;5031317;28;20049;-72
2023/02/06 04:00:32;;;;;;;42.03;16.80;;;2.10;99.90;;;;;;4993569;28;20148;-72
2023/02/06 04:02:58;;;;;;;35.83;16.23;;;2.10;99.90;;;;;;5040648;28;20778;-72
2023/02/06 04:05:23;;;;;;;37.38;17.27;;;2.10;99.90;;;;;;5026858;28;20524;-73
2023/02/06 04:07:51;;;;;;;36.25;16.05;;;2.00;99.90;;;;;;4985118;28;20161;-72
2023/02/06 04:10:18;;;;;;;40.53;16.50;;;2.00;99.90;;;;;;5020879;28;20049;-72
2023/02/06 04:12:44;;;;;;;33.55;16.20;;;2.10;99.90;;;;;;5030323;28;20065;-72
2023/02/06 04:15:11;;;;;;;43.35;18.13;;;2.10;99.90;;;;;;5017718;28;20059;-72
2023/02/06 04:17:37;;;;;;;39.20;17.52;;;2.10;99.90;;;;;;5021046;28;20045;-72
2023/02/06 04:20:03;;;;;;;41.70;18.00;;;2.10;99.90;;;;;;5027358;28;20063;-72
2023/02/06 04:22:29;;;;;;;39.53;17.77;;;2.00;99.90;;;;;;5018998;28;20092;-72
2023/02/06 04:24:55;;;;;;;42.45;17.65;;;2.10;99.90;;;;;;5023885;28;20045;-72
2023/02/06 04:27:20;;;;;;;40.40;17.83;;;2.20;99.90;;;;;;5018146;28;20748;-72
2023/02/06 04:29:46;;;;;;;39.53;17.35;;;2.20;99.90;;;;;;5028321;28;20358;-72
2023/02/06 04:32:12;;;;;;;35.97;16.33;;;2.00;99.90;;;;;;5013212;28;20076;-73
2023/02/06 04:34:38;;;;;;;39.92;17.50;;;2.10;99.90;;;;;;5007585;28;20101;-72
2023/02/06 04:37:04;;;;;;;34.55;16.33;;;2.10;99.90;;;;;;5023757;28;20148;-72
2023/02/06 04:39:30;;;;;;;41.30;16.25;;;2.10;99.90;;;;;;5023834;28;20412;-72
2023/02/06 04:41:56;;;;;;;34.38;15.90;;;2.00;99.90;;;;;;5028661;28;20113;-72
2023/02/06 04:44:22;;;;;;;38.08;16.42;;;2.10;99.90;;;;;;5039450;28;20402;-72
2023/02/06 04:46:47;;;;;;;36.28;16.30;;;2.10;99.90;;;;;;4990398;28;20049;-72
2023/02/06 04:49:13;;;;;;;38.35;17.58;;;2.10;99.90;;;;;;5026486;28;20814;-72
2023/02/06 04:51:39;;;;;;;38.97;17.42;;;2.10;99.90;;;;;;4987391;28;20118;-72
2023/02/06 04:54:05;;;;;;;46.17;17.30;;;2.10;99.90;;;;;;5013520;28;20130;-72
2023/02/06 04:56:31;;;;;;;34.00;15.73;;;2.10;99.90;;;;;;5004444;28;20484;-72
2023/02/06 04:58:57;;;;;;;35.88;16.90;;;2.10;99.90;;;;;;5012450;28;20068;-72
2023/02/06 05:01:23;;;;;;;35.58;15.63;;;2.00;99.90;;;;;;5006069;28;20077;-72
2023/02/06 05:03:48;;;;;;;39.40;16.17;;;2.00;99.90;;;;;;5044676;28;20115;-72
2023/02/06 05:06:14;;;;;;;39.53;16.48;;;2.00;99.90;;;;;;5012042;28;20037;-72
2023/02/06 05:08:41;;;;;;;42.10;16.35;;;2.00;99.90;;;;;;5010089;28;20056;-72
2023/02/06 05:11:07;;;;;;;36.72;15.48;;;2.00;99.90;;;;;;4992413;28;20041;-72
2023/02/06 05:13:33;;;;;;;31.58;14.55;;;2.10;99.90;;;;;;4982913;28;20069;-72
2023/02/06 05:16:13;;;;;;;34.60;16.23;;;2.10;99.90;;;;;;5029861;28;20049;-72
2023/02/06 05:18:39;;;;;;;39.15;15.73;;;2.20;99.90;;;;;;5027630;28;20122;-72
2023/02/06 05:21:05;;;;;;;41.83;17.20;;;2.10;99.90;;;;;;5015690;28;20047;-72
2023/02/06 05:23:31;;;;;;;36.00;16.05;;;2.00;99.90;;;;;;5019431;28;20530;-71
2023/02/06 05:26:00;;;;;;;41.85;17.00;;;2.10;99.90;;;;;;5019885;28;20049;-72
2023/02/06 05:28:28;;;;;;;41.45;18.05;;;2.10;99.90;;;;;;5013065;28;20046;-72
2023/02/06 05:30:54;;;;;;;39.85;17.02;;;2.00;99.90;;;;;;5020491;28;20053;-72
2023/02/06 05:33:20;;;;;;;36.40;17.15;;;2.00;99.90;;;;;;5037734;28;20575;-71
2023/02/06 05:35:46;;;;;;;48.70;18.30;;;2.10;99.90;;;;;;5011186;28;20057;-72
2023/02/06 05:38:12;;;;;;;37.42;17.50;;;2.00;99.90;;;;;;5009578;28;20042;-71
2023/02/06 05:40:37;;;;;;;39.25;18.25;;;2.10;99.90;;;;;;5022878;28;20486;-72
2023/02/06 05:43:03;;;;;;;31.45;15.65;;;2.10;99.90;;;;;;5001910;28;20045;-72
2023/02/06 05:45:29;;;;;;;42.47;18.30;;;2.10;99.90;;;;;;5020912;28;20131;-72
2023/02/06 05:47:54;;;;;;;39.95;17.38;;;2.10;99.90;;;;;;5022787;28;20051;-72
2023/02/06 05:50:20;;;;;;;41.28;16.92;;;2.10;99.90;;;;;;5023346;28;20378;-72
2023/02/06 05:52:46;;;;;;;36.55;17.63;;;2.10;99.90;;;;;;5016736;28;20466;-72
2023/02/06 05:55:12;;;;;;;42.42;17.45;;;2.10;99.90;;;;;;5017088;28;20057;-73
2023/02/06 05:57:37;;;;;;;47.15;18.17;;;2.20;99.90;;;;;;5035936;28;20052;-73
2023/02/06 06:00:05;;;;;;;43.55;19.40;;;2.20;99.90;;;;;;5008983;28;20087;-72
2023/02/06 06:02:31;;;;;;;41.55;17.98;;;2.10;99.90;;;;;;5006190;28;20654;-72
2023/02/06 06:04:57;;;;;;;42.78;18.92;;;2.10;99.90;;;;;;5008895;28;20052;-72
2023/02/06 06:07:23;;;;;;;43.00;19.60;;;2.10;99.90;;;;;;5005308;28;20067;-72
2023/02/06 06:09:49;;;;;;;41.33;18.55;;;2.10;99.90;;;;;;5045064;28;20486;-72
2023/02/06 06:12:15;;;;;;;46.50;19.10;;;2.00;99.90;;;;;;5024700;28;20061;-72
2023/02/06 06:14:41;;;;;;;46.88;20.65;;;2.20;99.90;;;;;;5019004;28;20048;-72
2023/02/06 06:17:06;;;;;;;47.83;21.30;;;2.10;99.90;;;;;;5004733;28;20050;-73
2023/02/06 06:19:32;;;;;;;38.75;17.20;;;2.10;99.90;;;;;;5026998;28;20544;-73
2023/02/06 06:21:58;;;;;;;46.80;18.73;;;2.00;99.90;;;;;;5007595;28;20037;-74
2023/02/06 06:24:24;;;;;;;43.25;19.77;;;2.10;99.90;;;;;;5000121;28;20038;-72
2023/02/06 06:26:50;;;;;;;46.20;18.65;;;2.00;99.90;;;;;;5029827;28;20045;-72
2023/02/06 06:29:16;;;;;;;38.38;17.98;;;1.90;99.90;;;;;;5033659;28;20041;-72
2023/02/06 06:31:42;;;;;;;40.83;17.35;;;2.00;99.90;;;;;;5025867;28;20049;-72
2023/02/06 06:34:08;;;;;;;39.55;17.75;;;2.00;99.90;;;;;;5020132;28;20045;-72
2023/02/06 06:36:33;;;;;;;43.63;18.02;;;2.00;99.90;;;;;;5019586;28;20104;-72
2023/02/06 06:38:59;;;;;;;41.78;18.95;;;2.00;99.90;;;;;;5030114;28;20387;-72
2023/02/06 06:41:25;;;;;;;40.33;18.13;;;1.90;99.90;;;;;;5030622;28;20190;-71
2023/02/06 06:43:55;;;;;;;44.50;19.67;;;1.90;99.90;;;;;;5035524;28;20041;-72
2023/02/06 06:46:21;;;;;;;44.05;19.73;;;1.90;99.90;;;;;;5010687;28;20371;-71
2023/02/06 06:48:47;;;;;;;43.92;19.08;;;1.80;99.90;;;;;;5032492;28;20050;-71
2023/02/06 06:51:13;;;;;;;45.88;19.48;;;1.80;99.90;;;;;;5026387;28;20045;-72
2023/02/06 06:53:38;;;;;;;49.25;20.35;;;1.80;99.90;;;;;;5011936;28;20121;-72
2023/02/06 06:56:05;;;;;;;53.38;21.33;;;1.80;99.90;;;;;;5005521;28;20138;-71
2023/02/06 06:58:31;;;;;;;52.25;22.38;;;1.80;99.90;;;;;;5046996;28;20049;-72
2023/02/06 07:00:57;;;;;;;45.55;20.10;;;1.80;99.90;;;;;;5013867;28;20159;-72
2023/02/06 07:03:23;;;;;;;47.67;21.33;;;1.90;99.90;;;;;;4986874;28;20041;-72
2023/02/06 07:05:48;;;;;;;59.20;22.40;;;1.80;99.90;;;;;;5014847;28;20470;-72
2023/02/06 07:08:14;;;;;;;57.38;23.98;;;1.70;99.90;;;;;;5017870;28;20042;-72
2023/02/06 07:10:40;;;;;;;53.15;21.27;;;1.60;99.90;;;;;;5009412;28;20045;-72
2023/02/06 07:13:05;;;;;;;44.78;20.58;;;1.80;99.90;;;;;;5015593;28;20406;-73
2023/02/06 07:15:31;;;;;;;46.30;20.25;;;1.60;99.90;;;;;;5031858;28;20053;-73
2023/02/06 07:17:58;;;;;;;42.33;19.45;;;1.70;99.90;;;;;;5010140;28;20120;-73
2023/02/06 07:20:24;;;;;;;44.75;18.85;;;1.80;99.90;;;;;;5016161;28;20038;-72
2023/02/06 07:22:50;;;;;;;47.90;19.38;;;1.80;99.90;;;;;;5004872;28;20048;-72
2023/02/06 07:25:17;;;;;;;48.28;19.88;;;1.80;99.90;;;;;;5029830;28;20109;-72
2023/02/06 07:27:42;;;;;;;48.83;20.17;;;1.70;99.90;;;;;;5008198;28;20045;-72
2023/02/06 07:30:09;;;;;;;46.60;19.17;;;1.70;99.90;;;;;;5022898;28;20053;-72
2023/02/06 07:32:35;;;;;;;51.42;20.15;;;1.70;99.90;;;;;;5012205;28;20120;-73
2023/02/06 07:35:03;;;;;;;44.47;19.88;;;1.60;99.90;;;;;;5010793;28;20060;-72
2023/02/06 07:37:29;;;;;;;49.50;20.15;;;1.70;99.90;;;;;;5054387;28;20466;-72
2023/02/06 07:39:54;;;;;;;42.88;20.10;;;1.60;99.90;;;;;;5016572;28;20064;-73
2023/02/06 07:42:20;;;;;;;43.22;19.58;;;1.70;99.90;;;;;;5024085;28;20052;-72
2023/02/06 07:44:46;;;;;;;38.85;18.88;;;1.60;99.90;;;;;;4998496;28;20052;-72
2023/02/06 07:47:12;;;;;;;44.38;20.75;;;1.70;99.90;;;;;;5019500;28;20046;-73
2023/02/06 07:49:37;;;;;;;49.17;21.20;;;1.60;99.90;;;;;;5014199;28;20049;-73
2023/02/06 07:52:03;;;;;;;53.10;20.38;;;1.60;99.90;;;;;;5022596;28;20060;-72
2023/02/06 07:54:30;;;;;;;50.63;19.95;;;1.50;99.90;;;;;;5019821;28;20502;-72
2023/02/06 07:56:55;;;;;;;49.40;19.83;;;1.50;99.90;;;;;;5008631;28;20053;-72
2023/02/06 07:59:22;;;;;;;45.08;21.05;;;1.50;99.90;;;;;;5006413;28;20041;-72
2023/02/06 08:01:48;;;;;;;44.15;19.90;;;1.70;99.90;;;;;;5027398;28;20627;-73
2023/02/06 08:04:13;;;;;;;41.78;18.48;;;1.70;99.90;;;;;;5007217;28;20053;-72
2023/02/06 08:06:43;;;;;;;40.90;19.63;;;1.70;99.90;;;;;;5010557;28;20038;-72
2023/02/06 08:09:11;;;;;;;46.28;19.52;;;1.80;99.90;;;;;;5024386;28;20048;-73
2023/02/06 08:11:37;;;;;;;46.10;19.95;;;1.80;99.90;;;;;;5024233;28;20048;-72
2023/02/06 08:14:03;;;;;;;47.13;21.02;;;1.60;99.90;;;;;;5003331;28;20049;-72
2023/02/06 08:16:29;;;;;;;44.63;19.92;;;1.70;99.90;;;;;;5012524;28;20149;-72
2023/02/06 08:18:54;;;;;;;48.13;20.42;;;1.60;99.90;;;;;;5029136;28;20163;-72
2023/02/06 08:21:21;;;;;;;42.65;19.63;;;1.60;99.90;;;;;;5021107;28;20401;-74
2023/02/06 08:23:52;;;;;;;43.53;19.80;;;1.70;99.90;;;;;;5024153;28;20477;-73
2023/02/06 08:26:18;;;;;;;41.50;19.70;;;1.60;99.90;;;;;;5010091;28;20136;-73
2023/02/06 08:28:45;;;;;;;48.25;21.00;;;1.60;99.90;;;;;;5011468;28;20165;-73
2023/02/06 08:31:12;;;;;;;51.38;22.75;;;1.70;99.90;;;;;;5019734;28;20052;-73
2023/02/06 08:33:38;;;;;;;49.65;21.38;;;1.50;99.90;;;;;;5017251;28;20180;-74
2023/02/06 08:36:05;;;;;;;52.58;19.80;;;1.40;99.90;;;;;;5005687;28;20050;-73
2023/02/06 08:38:30;;;;;;;42.05;19.33;;;1.40;99.90;;;;;;5007037;28;20739;-74
2023/02/06 08:40:56;;;;;;;47.65;20.30;;;1.40;99.90;;;;;;5031077;28;20099;-72
2023/02/06 08:43:22;;;;;;;40.47;19.00;;;1.30;99.90;;;;;;5056026;28;20424;-73
2023/02/06 08:45:51;;;;;;;43.45;19.58;;;1.40;99.90;;;;;;5033189;28;20425;-73
2023/02/06 08:48:18;;;;;;;44.95;20.67;;;1.40;99.90;;;;;;5017084;28;20050;-72
2023/02/06 08:50:44;;;;;;;42.53;18.17;;;1.40;99.90;;;;;;5012155;28;20049;-73
2023/02/06 08:53:09;;;;;;;37.95;18.13;;;1.50;99.90;;;;;;5002165;28;20049;-72
2023/02/06 08:55:35;;;;;;;53.30;20.40;;;1.50;99.90;;;;;;5023190;28;20111;-73
2023/02/06 08:58:01;;;;;;;42.10;19.88;;;1.50;99.90;;;;;;4985898;28;20475;-73
2023/02/06 09:00:27;;;;;;;48.35;20.63;;;1.60;99.90;;;;;;5029191;28;20052;-74
2023/02/06 09:02:53;;;;;;;43.30;19.00;;;1.60;99.90;;;;;;5017674;28;20041;-73
2023/02/06 09:05:19;;;;;;;48.20;20.08;;;1.60;99.90;;;;;;5026776;28;20045;-73
2023/02/06 09:07:45;;;;;;;47.95;21.52;;;1.70;99.90;;;;;;5018913;28;20071;-73
2023/02/06 09:10:11;;;;;;;44.78;21.58;;;1.60;99.90;;;;;;5026980;28;20045;-73
2023/02/06 09:12:37;;;;;;;43.78;20.30;;;1.70;99.90;;;;;;5028461;28;20405;-74
2023/02/06 09:15:03;;;;;;;37.05;17.38;;;1.60;99.90;;;;;;5012175;28;20541;-73
2023/02/06 09:17:30;;;;;;;37.25;16.75;;;1.80;99.90;;;;;;4988570;28;20049;-73
2023/02/06 09:19:59;;;;;;;33.85;15.27;;;1.80;99.90;;;;;;4989006;28;20231;-74
2023/02/06 09:22:25;;;;;;;33.65;14.27;;;1.80;99.90;;;;;;5014213;28;20042;-73
2023/02/06 09:24:51;;;;;;;31.27;14.90;;;1.90;99.90;;;;;;5008552;28;20077;-73
2023/02/06 09:27:16;;;;;;;29.25;13.98;;;1.90;99.90;;;;;;5020335;28;20517;-73
2023/02/06 09:29:42;;;;;;;29.88;13.52;;;2.00;99.90;;;;;;5006544;28;20053;-72
2023/02/06 09:32:09;;;;;;;35.50;14.98;;;2.00;99.90;;;;;;4989359;28;20049;-72
2023/02/06 09:34:35;;;;;;;33.28;15.10;;;2.00;99.90;;;;;;5009004;28;20048;-72
2023/02/06 09:37:02;;;;;;;30.30;13.75;;;2.00;99.90;;;;;;5010762;28;20050;-73
2023/02/06 09:39:28;;;;;;;32.10;14.13;;;2.00;99.90;;;;;;5023590;28;20048;-73
2023/02/06 09:41:55;;;;;;;31.85;12.20;;;2.00;99.90;;;;;;5024087;28;20115;-72
2023/02/06 09:44:28;;;;;;;28.60;12.00;;;2.10;99.90;;;;;;5022419;28;20080;-72
2023/02/06 09:47:13;;;;;;;30.60;12.43;;;2.10;99.90;;;;;;4990337;28;20389;-72
2023/02/06 09:49:50;;;;;;;24.80;12.50;;;2.20;99.90;;;;;;5023010;28;20049;-72
2023/02/06 09:52:38;;;;;;;28.43;13.23;;;2.20;99.90;;;;;;5007213;28;20049;-72
2023/02/06 09:55:36;;;;;;;23.67;13.13;;;2.00;99.90;;;;;;5017366;28;20543;-72
2023/02/06 09:58:21;;;;;;;29.67;11.70;;;2.10;99.90;;;;;;5014622;28;20057;-73
2023/02/06 10:00:52;;;;;;;30.42;15.05;;;2.10;99.90;;;;;;5056353;28;20632;-73
2023/02/06 10:03:45;;;;;;;28.27;13.45;;;2.20;99.90;;;;;;5012995;28;20525;-74
2023/02/06 10:06:36;;;;;;;28.58;12.20;;;2.10;99.90;;;;;;5025105;28;20046;-73
2023/02/06 10:09:16;;;;;;;26.10;11.02;;;2.20;99.90;;;;;;5028010;28;20092;-72
2023/02/06 10:12:20;;;;;;;27.38;11.98;;;2.20;99.90;;;;;;5025585;28;20482;-73
2023/02/06 10:14:47;;;;;;;24.92;11.02;;;2.30;99.90;;;;;;5020052;28;20173;-72
2023/02/06 10:17:20;;;;;;;26.88;10.88;;;2.30;99.90;;;;;;4982356;28;20053;-73
2023/02/06 10:19:50;;;;;;;27.67;10.88;;;2.20;99.90;;;;;;5032963;28;20140;-72
2023/02/06 10:22:29;;;;;;;27.50;11.20;;;2.20;99.90;;;;;;5021352;28;20050;-72
2023/02/06 10:25:10;;;;;;;25.15;10.68;;;2.20;99.90;;;;;;5002546;28;20120;-72
2023/02/06 10:27:36;;;;;;;22.88;10.15;;;2.30;99.90;;;;;;5026311;28;20050;-72
2023/02/06 10:30:02;;;;;;;21.52;8.48;;;2.20;99.90;;;;;;5019237;28;20157;-73
2023/02/06 10:32:51;;;;;;;22.13;10.52;;;2.20;99.90;;;;;;5008638;28;20050;-73
2023/02/06 10:35:23;;;;;;;22.40;11.07;;;2.30;99.90;;;;;;5023320;28;20041;-73
2023/02/06 10:38:03;;;;;;;24.02;11.52;;;2.30;99.90;;;;;;5031906;28;20137;-73
2023/02/06 10:40:34;;;;;;;20.92;8.82;;;2.40;99.90;;;;;;5023532;28;20041;-73
2023/02/06 10:43:10;;;;;;;15.35;7.40;;;2.50;99.90;;;;;;5026498;28;20045;-72
2023/02/06 10:45:48;;;;;;;18.05;6.68;;;2.50;99.90;;;;;;5008730;28;20041;-72
2023/02/06 10:48:32;;;;;;;16.20;6.93;;;2.50;99.90;;;;;;5018359;28;20053;-73
2023/02/06 10:51:17;;;;;;;17.30;7.35;;;2.60;99.90;;;;;;5016197;28;20111;-72
2023/02/06 10:54:02;;;;;;;13.18;6.85;;;2.60;99.90;;;;;;5009705;28;20049;-72
2023/02/06 10:56:55;;;;;;;17.63;6.75;;;2.70;99.90;;;;;;5010446;28;20045;-73
2023/02/06 10:59:33;;;;;;;19.40;7.38;;;2.60;99.90;;;;;;5066987;28;20132;-72
2023/02/06 11:02:08;;;;;;;17.67;6.03;;;2.70;99.90;;;;;;5012783;28;20667;-71
2023/02/06 11:04:41;;;;;;;18.92;7.20;;;2.70;99.90;;;;;;5022884;28;20060;-72
2023/02/06 11:07:31;;;;;;;17.50;7.57;;;2.80;99.90;;;;;;5017570;28;20080;-72
2023/02/06 11:09:58;;;;;;;18.45;7.30;;;2.80;99.90;;;;;;5043138;28;20122;-72
2023/02/06 11:12:34;;;;;;;22.17;8.15;;;2.80;99.90;;;;;;5024688;28;20049;-72
2023/02/06 11:15:03;;;;;;;20.85;9.15;;;2.80;99.90;;;;;;5021282;28;20076;-72
2023/02/06 11:17:29;;;;;;;21.98;9.93;;;2.90;99.90;;;;;;5013246;28;20045;-75
2023/02/06 11:20:00;;;;;;;22.23;9.30;;;3.00;99.90;;;;;;5020123;28;20107;-72
2023/02/06 11:22:30;;;;;;;29.20;12.18;;;3.20;99.90;;;;;;5020464;28;20066;-72
2023/02/06 11:25:09;;;;;;;18.08;8.60;;;3.10;99.90;;;;;;5007542;28;20120;-72
2023/02/06 11:27:35;;;;;;;12.73;5.35;;;3.40;99.90;;;;;;5021745;28;20042;-72
2023/02/06 11:30:29;;;;;;;14.00;4.88;;;3.30;99.90;;;;;;5021664;28;20118;-71
2023/02/06 11:32:57;;;;;;;8.73;4.43;;;3.20;99.90;;;;;;5040363;28;20045;-71
2023/02/06 11:35:23;;;;;;;;;;;3.20;99.90;;;;;;5006935;28;20049;-71
2023/02/06 11:37:53;;;;;;;9.07;3.45;;;3.30;99.90;;;;;;5021559;28;19992;-72
2023/02/06 11:40:24;;;;;;;6.93;3.65;;;3.30;99.90;;;;;;5024316;28;20159;-71
2023/02/06 11:43:19;;;;;;;9.55;3.53;;;3.30;99.90;;;;;;5026642;28;20053;-71
2023/02/06 11:45:46;;;;;;;8.63;3.70;;;3.40;99.90;;;;;;5023767;28;20052;-73
2023/02/06 11:48:34;;;;;;;9.32;3.55;;;3.40;99.90;;;;;;5022330;28;20347;-72
2023/02/06 11:51:00;;;;;;;11.02;4.32;;;3.50;99.90;;;;;;5024849;28;20049;-72
2023/02/06 11:53:26;;;;;;;10.57;4.25;;;3.60;99.90;;;;;;5010988;28;20049;-72
2023/02/06 11:56:00;;;;;;;8.77;4.03;;;3.50;99.90;;;;;;5040391;28;20087;-72
2023/02/06 11:58:26;;;;;;;7.90;3.45;;;3.50;99.90;;;;;;4998181;28;20041;-73
2023/02/06 12:00:53;;;;;;;8.05;3.25;;;3.50;99.90;;;;;;5021538;28;20117;-73
2023/02/06 12:03:31;;;;;;;6.07;3.35;;;3.50;99.90;;;;;;5022807;28;20048;-72
2023/02/06 12:06:07;;;;;;;8.10;3.45;;;3.50;99.90;;;;;;5019358;28;20038;-72
2023/02/06 12:08:46;;;;;;;8.90;4.00;;;3.40;99.90;;;;;;5007154;28;20069;-72
2023/02/06 12:11:37;;;;;;;6.88;3.60;;;3.40;99.90;;;;;;5005978;28;20041;-73
2023/02/06 12:14:09;;;;;;;9.07;3.70;;;3.60;99.90;;;;;;5033267;28;20081;-73
2023/02/06 12:16:37;;;;;;;7.78;4.40;;;3.70;99.90;;;;;;5015046;28;20056;-72
2023/02/06 12:19:04;;;;;;;5.45;2.78;;;3.70;99.90;;;;;;5017605;28;20046;-73
2023/02/06 12:21:54;;;;;;;9.60;3.83;;;3.80;99.90;;;;;;5038099;28;21469;-72
2023/02/06 12:24:41;;;;;;;9.35;3.85;;;3.80;99.90;;;;;;5002790;28;20728;-73
2023/02/06 12:27:36;;;;;;;10.18;3.40;;;3.80;99.90;;;;;;5005058;28;20450;-73
2023/02/06 12:30:24;;;;;;;8.95;3.20;;;3.80;99.90;;;;;;5028201;28;20041;-72
2023/02/06 12:32:52;;;;;;;7.32;3.17;;;3.80;99.90;;;;;;5027495;28;20111;-73
2023/02/06 12:35:46;;;;;;;10.00;3.28;;;3.80;99.90;;;;;;5047777;28;20049;-73
2023/02/06 12:38:29;;;;;;;6.93;2.88;;;3.70;99.90;;;;;;5015485;28;20051;-72
2023/02/06 12:41:18;;;;;;;7.18;3.35;;;3.70;99.90;;;;;;5023257;28;20041;-73
2023/02/06 12:43:46;;;;;;;6.35;2.90;;;3.70;99.90;;;;;;5010798;28;20046;-73
2023/02/06 12:46:20;;;;;;;11.80;2.92;;;3.70;99.90;;;;;;5011043;28;20037;-72
2023/02/06 12:49:21;;;;;;;5.47;2.88;;;3.90;99.90;;;;;;5009984;28;20374;-72
2023/02/06 12:52:16;;;;;;;5.45;3.03;;;3.90;99.90;;;;;;5040099;28;20461;-73
2023/02/06 12:54:52;;;;;;;5.95;3.05;;;4.00;99.90;;;;;;5022827;28;20046;-73